Time;durP1;ratioP1;P1;durP2;ratioP2;P2;SDS_P1;SDS_P2;PMS_P1;PMS_P2;Temp;Humidity;BMP_temperature;BMP_pressure;BME280_temperature;BME280_humidity;BME280_pressure;Samples;Min_cycle;Max_cycle;Signal;HPM_P1;HPM_P2
2023/05/04 00:02:53;;;;;;;13.43;8.75;;;;;;;9.31;96.82;101175.94;8321183;28;20095;-60
2023/05/04 00:06:53;;;;;;;17.98;9.43;;;;;;;9.45;95.76;101174.88;8315758;28;20041;-60
2023/05/04 00:10:55;;;;;;;13.50;9.30;;;;;;;9.32;96.13;101168.69;8319233;28;20073;-61
2023/05/04 00:14:55;;;;;;;20.10;10.23;;;;;;;9.35;96.72;101171.16;8325875;28;20049;-59
2023/05/04 00:18:55;;;;;;;17.90;10.45;;;;;;;9.31;96.66;101165.16;8327251;28;20098;-59
2023/05/04 00:22:56;;;;;;;16.50;9.90;;;;;;;9.38;96.49;101166.41;8325746;28;20310;-59
2023/05/04 00:26:56;;;;;;;16.27;10.88;;;;;;;9.21;96.44;101165.97;8325854;28;20084;-59
2023/05/04 00:30:57;;;;;;;17.00;10.18;;;;;;;9.21;97.48;101163.28;8326292;28;20511;-59
2023/05/04 00:34:58;;;;;;;19.10;10.73;;;;;;;9.19;97.84;101162.53;8324978;28;20076;-59
2023/05/04 00:38:59;;;;;;;20.27;11.52;;;;;;;9.26;97.62;101155.66;8326453;28;20041;-59
2023/05/04 00:42:59;;;;;;;20.20;11.05;;;;;;;9.19;97.78;101158.00;8326513;28;20038;-60
2023/05/04 00:47:02;;;;;;;20.02;12.07;;;;;;;9.11;97.88;101154.13;8324029;28;20068;-59
2023/05/04 00:51:02;;;;;;;21.60;11.50;;;;;;;9.02;99.15;101152.13;8326363;28;20045;-59
2023/05/04 00:55:04;;;;;;;16.25;11.30;;;;;;;8.92;99.13;101143.00;8324091;28;20098;-59
2023/05/04 00:59:04;;;;;;;16.15;10.50;;;;;;;8.59;99.85;101142.81;8330942;28;20064;-59
2023/05/04 01:03:04;;;;;;;25.15;12.05;;;;;;;8.63;100.00;101138.94;8323868;28;20449;-60
2023/05/04 01:07:28;;;;;;;22.25;13.02;;;;;;;8.65;99.61;101127.06;8323987;28;20045;-60
2023/05/04 01:11:36;;;;;;;24.75;12.57;;;;;;;8.68;99.41;101126.84;8325012;28;20111;-60
2023/05/04 01:15:37;;;;;;;23.45;11.88;;;;;;;8.64;99.61;101132.56;8325309;28;20112;-60
2023/05/04 01:19:38;;;;;;;19.02;12.18;;;;;;;8.61;99.62;101124.72;8323015;28;20444;-60
2023/05/04 01:23:38;;;;;;;23.15;11.75;;;;;;;8.44;100.00;101122.38;8324682;28;20451;-60
2023/05/04 01:27:51;;;;;;;20.92;12.00;;;;;;;8.36;100.00;101119.41;8335984;28;20037;-60
2023/05/04 01:31:55;;;;;;;22.77;13.18;;;;;;;8.35;100.00;101123.91;8330620;28;20095;-60
2023/05/04 01:35:55;;;;;;;22.70;12.77;;;;;;;8.30;100.00;101114.47;8323344;28;20259;-60
2023/05/04 01:39:59;;;;;;;22.92;13.43;;;;;;;8.04;100.00;101102.84;8321897;28;20124;-60
2023/05/04 01:43:59;;;;;;;20.92;12.68;;;;;;;8.14;100.00;101109.28;8324696;28;20037;-60
2023/05/04 01:48:00;;;;;;;21.52;13.32;;;;;;;8.04;100.00;101114.50;8324365;28;20048;-60
2023/05/04 01:52:00;;;;;;;21.90;12.80;;;;;;;8.08;100.00;101113.28;8324282;28;20042;-60
2023/05/04 01:56:01;;;;;;;24.77;13.13;;;;;;;8.00;100.00;101112.97;8322261;28;20128;-60
2023/05/04 02:00:03;;;;;;;25.13;13.48;;;;;;;7.76;100.00;101113.88;8324425;28;20037;-60
2023/05/04 02:04:29;;;;;;;23.17;12.68;;;;;;;7.78;100.00;101120.00;8408244;27;20391;-59
2023/05/04 02:08:29;;;;;;;23.10;13.02;;;;;;;7.70;100.00;101115.16;8398660;28;20035;-60
2023/05/04 02:12:30;;;;;;;21.92;13.40;;;;;;;7.66;100.00;101118.19;8398753;28;20056;-59
2023/05/04 02:16:32;;;;;;;25.17;13.18;;;;;;;7.67;100.00;101115.38;8413983;28;20032;-60
2023/05/04 02:20:33;;;;;;;22.77;12.77;;;;;;;7.67;100.00;101115.38;8379038;28;20037;-60
2023/05/04 02:24:34;;;;;;;22.50;12.38;;;;;;;7.62;100.00;101117.53;8399858;27;20067;-59
2023/05/04 02:28:35;;;;;;;20.63;13.00;;;;;;;7.70;100.00;101116.97;8399484;27;20410;-61
2023/05/04 02:32:35;;;;;;;20.75;12.75;;;;;;;7.72;100.00;101113.19;8398829;27;20056;-61
2023/05/04 02:36:36;;;;;;;19.73;12.23;;;;;;;7.80;100.00;101110.84;8398146;27;20037;-61
2023/05/04 02:40:36;;;;;;;21.92;12.02;;;;;;;7.81;100.00;101112.56;8399836;27;20039;-61
2023/05/04 02:44:36;;;;;;;18.45;11.90;;;;;;;7.75;100.00;101107.59;8399367;27;20040;-61
2023/05/04 02:48:37;;;;;;;18.58;11.43;;;;;;;7.68;100.00;101105.44;8397546;27;20503;-61
2023/05/04 02:52:37;;;;;;;20.27;11.02;;;;;;;7.63;100.00;101103.09;8399264;27;20064;-58
2023/05/04 02:56:38;;;;;;;17.27;11.50;;;;;;;7.54;100.00;101095.66;8398398;27;20064;-62
2023/05/04 03:00:38;;;;;;;17.38;10.48;;;;;;;7.58;100.00;101097.19;8399068;27;20049;-62
2023/05/04 03:04:39;;;;;;;18.88;10.98;;;;;;;7.54;100.00;101098.34;8398268;27;20101;-62
2023/05/04 03:08:40;;;;;;;17.33;10.82;;;;;;;7.74;100.00;101094.25;8398739;27;20063;-62
2023/05/04 03:12:40;;;;;;;17.00;10.15;;;;;;;7.85;99.80;101092.56;8393305;27;20044;-62
2023/05/04 03:16:41;;;;;;;15.45;8.93;;;;;;;7.71;99.51;101094.47;8374322;28;20044;-62
2023/05/04 03:20:41;;;;;;;16.40;8.25;;;;;;;7.88;97.60;101092.34;8375680;28;20052;-62
2023/05/04 03:24:45;;;;;;;16.88;7.95;;;;;;;8.03;95.96;101088.50;8375369;28;20041;-62
2023/05/04 03:28:46;;;;;;;13.75;7.57;;;;;;;8.21;94.00;101083.66;8375417;28;20538;-62
2023/05/04 03:32:48;;;;;;;10.95;6.68;;;;;;;8.44;91.92;101076.56;8375792;28;20070;-62
2023/05/04 03:36:49;;;;;;;10.48;6.68;;;;;;;8.81;89.29;101068.31;8392009;28;20052;-61
2023/05/04 03:40:49;;;;;;;10.65;6.47;;;;;;;8.91;87.85;101068.50;8392464;28;20521;-62
2023/05/04 03:44:50;;;;;;;9.93;5.97;;;;;;;8.97;87.71;101068.03;8391220;28;20510;-61
2023/05/04 03:48:50;;;;;;;12.00;5.60;;;;;;;9.03;86.75;101063.00;8391398;28;20041;-61
2023/05/04 03:52:52;;;;;;;7.95;5.88;;;;;;;9.13;86.16;101057.78;8391704;28;20057;-61
2023/05/04 03:56:55;;;;;;;7.65;4.85;;;;;;;9.21;85.66;101064.31;8389427;28;20486;-61
2023/05/04 04:00:57;;;;;;;7.28;4.90;;;;;;;9.24;84.91;101060.53;8391736;28;20028;-61
2023/05/04 04:04:58;;;;;;;11.95;5.57;;;;;;;9.25;85.34;101067.63;8390873;28;20045;-61
2023/05/04 04:08:58;;;;;;;9.25;5.50;;;;;;;9.30;85.25;101066.28;8391788;28;20040;-61
2023/05/04 04:12:59;;;;;;;14.80;5.93;;;;;;;9.33;85.35;101071.44;8390470;28;20036;-60
2023/05/04 04:16:59;;;;;;;15.77;6.38;;;;;;;9.33;84.84;101067.91;8388101;28;20146;-60
2023/05/04 04:21:00;;;;;;;7.20;5.32;;;;;;;9.41;84.63;101073.53;8377514;28;20041;-60
2023/05/04 04:25:00;;;;;;;10.02;6.38;;;;;;;9.36;84.79;101070.34;8388560;28;20557;-59
2023/05/04 04:29:01;;;;;;;13.18;6.25;;;;;;;9.38;85.15;101063.00;8387466;28;20032;-59
2023/05/04 04:33:02;;;;;;;9.63;5.88;;;;;;;9.44;84.32;101062.50;8387271;28;20461;-59
2023/05/04 04:37:02;;;;;;;12.45;6.32;;;;;;;9.49;84.46;101068.44;8385467;28;20041;-59
2023/05/04 04:41:03;;;;;;;13.38;6.50;;;;;;;9.53;84.63;101078.84;8353510;28;20041;-59
2023/05/04 04:45:04;;;;;;;14.88;5.70;;;;;;;9.61;83.87;101078.25;8354713;28;20137;-60
2023/05/04 04:49:05;;;;;;;7.63;5.68;;;;;;;9.79;83.26;101077.66;8353573;28;20170;-60
2023/05/04 04:53:05;;;;;;;8.27;5.30;;;;;;;9.89;82.42;101088.59;8349846;28;20037;-60
2023/05/04 04:57:06;;;;;;;9.15;5.43;;;;;;;9.94;82.08;101080.94;8352316;28;20436;-60
2023/05/04 05:01:06;;;;;;;11.52;5.60;;;;;;;10.04;82.45;101087.34;8375230;28;20251;-60
2023/05/04 05:05:07;;;;;;;5.93;4.57;;;;;;;10.14;81.83;101091.06;8420047;28;20048;-60
2023/05/04 05:09:16;;;;;;;7.78;5.20;;;;;;;10.40;81.77;101081.69;8420695;28;20036;-61
2023/05/04 05:13:16;;;;;;;13.80;5.72;;;;;;;10.65;80.15;101080.53;8372488;28;20058;-61
2023/05/04 05:17:18;;;;;;;6.97;4.03;;;;;;;10.80;81.24;101074.69;8370320;28;20038;-62
2023/05/04 05:21:19;;;;;;;7.30;4.22;;;;;;;11.05;81.12;101071.66;8385934;28;20029;-60
2023/05/04 05:25:19;;;;;;;7.97;4.88;;;;;;;11.30;77.91;101071.28;8386617;28;20041;-60
2023/05/04 05:29:20;;;;;;;10.15;4.97;;;;;;;11.70;77.17;101068.69;8373492;28;20041;-60
2023/05/04 05:33:20;;;;;;;8.07;5.18;;;;;;;11.95;77.88;101061.97;8369655;28;20071;-60
2023/05/04 05:37:21;;;;;;;12.32;5.13;;;;;;;11.96;76.13;101069.09;8368369;28;20415;-61
2023/05/04 05:41:21;;;;;;;8.70;5.05;;;;;;;12.20;76.39;101065.06;8379562;28;20466;-60
2023/05/04 05:45:22;;;;;;;9.98;5.03;;;;;;;11.84;75.67;101071.91;8366720;28;20047;-60
2023/05/04 05:49:22;;;;;;;9.10;4.57;;;;;;;11.73;77.16;101068.44;8369561;28;20040;-60
2023/05/04 05:53:23;;;;;;;9.48;4.20;;;;;;;11.74;76.38;101065.59;8369295;28;20036;-60
2023/05/04 05:57:23;;;;;;;9.98;4.60;;;;;;;11.85;75.66;101060.09;8357919;28;20419;-60
2023/05/04 06:01:25;;;;;;;13.02;4.85;;;;;;;12.13;77.18;101068.47;8364199;28;20036;-60
2023/05/04 06:05:25;;;;;;;9.38;3.97;;;;;;;12.28;75.38;101065.22;8367403;28;20082;-60
2023/05/04 06:09:26;;;;;;;7.93;3.28;;;;;;;12.53;75.21;101072.03;8369102;28;20032;-60
2023/05/04 06:13:27;;;;;;;9.55;3.92;;;;;;;12.69;74.75;101061.47;8369013;28;20032;-60
2023/05/04 06:17:27;;;;;;;6.80;3.17;;;;;;;12.91;73.82;101062.06;8369273;28;20071;-60
2023/05/04 06:21:28;;;;;;;9.43;3.30;;;;;;;12.96;72.80;101048.09;8369070;28;20036;-60
2023/05/04 06:25:28;;;;;;;9.20;3.53;;;;;;;13.27;71.40;101057.81;8368633;28;20123;-60
2023/05/04 06:29:28;;;;;;;8.63;3.78;;;;;;;13.63;70.44;101048.84;8368926;28;20411;-60
2023/05/04 06:33:29;;;;;;;7.47;3.67;;;;;;;13.67;71.51;101047.56;8365552;28;20037;-60
2023/05/04 06:37:29;;;;;;;9.82;3.38;;;;;;;13.65;70.39;101044.13;8367848;28;20072;-60
2023/05/04 06:41:30;;;;;;;14.65;4.53;;;;;;;13.54;69.61;101044.28;8370209;28;20406;-60
2023/05/04 06:45:33;;;;;;;11.65;3.35;;;;;;;13.76;70.90;101043.97;8370967;28;20127;-60
2023/05/04 06:49:34;;;;;;;6.55;3.78;;;;;;;13.66;69.97;101043.13;8374358;28;20044;-60
2023/05/04 06:53:35;;;;;;;9.20;4.13;;;;;;;13.88;69.88;101048.22;8377084;28;20041;-60
2023/05/04 06:57:36;;;;;;;4.25;3.42;;;;;;;14.30;69.11;101052.19;8375994;28;20064;-60
2023/05/04 07:01:36;;;;;;;8.30;3.45;;;;;;;14.38;68.25;101051.44;8376769;28;20155;-60
2023/05/04 07:05:37;;;;;;;8.10;3.67;;;;;;;14.48;67.11;101038.63;8376649;28;20495;-60
2023/05/04 07:09:37;;;;;;;7.07;3.63;;;;;;;14.65;68.48;101043.25;8377136;28;20139;-60
2023/05/04 07:13:38;;;;;;;6.22;3.80;;;;;;;14.83;66.73;101042.25;8377984;28;20047;-60
2023/05/04 07:17:38;;;;;;;10.15;3.17;;;;;;;14.78;65.25;101033.69;8376377;28;20132;-62
2023/05/04 07:21:39;;;;;;;10.18;3.40;;;;;;;14.97;66.19;101033.53;8375076;28;20049;-62
2023/05/04 07:25:39;;;;;;;5.43;3.20;;;;;;;15.02;65.42;101020.31;8375868;28;20037;-62
2023/05/04 07:29:40;;;;;;;7.75;3.40;;;;;;;15.05;65.17;101009.09;8378387;28;20135;-62
2023/05/04 07:33:41;;;;;;;9.40;3.75;;;;;;;15.34;64.50;101008.84;8375388;28;20502;-62
2023/05/04 07:37:41;;;;;;;6.85;3.55;;;;;;;15.43;64.77;101014.19;8375408;28;20055;-62
2023/05/04 07:41:42;;;;;;;8.45;3.67;;;;;;;15.69;65.27;101004.16;8375502;28;20044;-63
2023/05/04 07:45:42;;;;;;;8.13;3.60;;;;;;;15.86;64.76;100998.78;8374990;28;20045;-60
2023/05/04 07:49:42;;;;;;;5.05;3.30;;;;;;;15.92;63.71;100998.16;8375440;28;20122;-60
2023/05/04 07:53:43;;;;;;;7.38;3.83;;;;;;;16.27;64.41;100989.75;8374609;28;20533;-60
2023/05/04 07:57:43;;;;;;;6.20;3.38;;;;;;;16.32;63.22;100990.13;8369220;28;20538;-60
2023/05/04 08:01:45;;;;;;;6.07;3.67;;;;;;;16.53;63.95;100993.28;8374359;28;20107;-60
2023/05/04 08:05:45;;;;;;;5.72;3.63;;;;;;;16.57;62.21;100978.28;8374904;28;20044;-59
2023/05/04 08:09:46;;;;;;;9.35;4.18;;;;;;;16.95;64.27;100989.41;8374720;28;20032;-60
2023/05/04 08:13:48;;;;;;;7.45;3.78;;;;;;;17.01;62.07;100987.88;8374415;28;20041;-60
2023/05/04 08:17:48;;;;;;;6.85;3.95;;;;;;;17.05;62.93;100983.78;8374511;28;20040;-60
2023/05/04 08:21:48;;;;;;;10.38;3.80;;;;;;;17.15;62.62;100973.53;8373875;28;20103;-60
2023/05/04 08:25:49;;;;;;;7.57;3.95;;;;;;;17.00;62.25;100967.03;8373642;28;20044;-60
2023/05/04 08:29:49;;;;;;;5.72;3.88;;;;;;;17.15;62.25;100968.06;8373597;28;20511;-60
2023/05/04 08:33:50;;;;;;;6.22;3.85;;;;;;;17.24;62.25;100953.38;8371952;28;20041;-60
2023/05/04 08:37:50;;;;;;;6.13;4.03;;;;;;;17.54;62.61;100963.59;8373552;28;20040;-60
2023/05/04 08:41:51;;;;;;;5.97;4.40;;;;;;;17.71;60.63;100956.22;8373153;28;20044;-60
2023/05/04 08:45:51;;;;;;;8.95;4.40;;;;;;;17.98;62.41;100955.75;8372913;28;20054;-59
2023/05/04 08:49:53;;;;;;;9.43;4.07;;;;;;;18.05;60.93;100940.34;8373677;28;20526;-59
2023/05/04 08:53:55;;;;;;;6.43;3.50;;;;;;;18.16;60.68;100948.13;8371570;28;20430;-59
2023/05/04 08:57:58;;;;;;;8.38;4.10;;;;;;;18.31;60.26;100944.47;8373099;28;20045;-59
2023/05/04 09:01:59;;;;;;;7.97;4.25;;;;;;;18.78;59.68;100931.50;8373037;28;20060;-59
2023/05/04 09:06:00;;;;;;;5.95;4.10;;;;;;;18.73;59.73;100942.16;8372135;28;20419;-59
2023/05/04 09:10:02;;;;;;;7.10;3.80;;;;;;;19.26;59.82;100936.59;8372935;28;20028;-59
2023/05/04 09:14:03;;;;;;;7.32;4.13;;;;;;;19.17;59.74;100934.06;8371806;28;20036;-59
2023/05/04 09:18:05;;;;;;;5.30;4.05;;;;;;;19.37;59.50;100919.66;8371951;28;20043;-60
2023/05/04 09:22:14;;;;;;;6.57;3.55;;;;;;;19.59;60.01;100911.56;8353426;28;20048;-60
2023/05/04 09:26:25;;;;;;;7.38;4.13;;;;;;;19.88;59.80;100906.06;8370105;28;20040;-59
2023/05/04 09:30:26;;;;;;;9.80;4.55;;;;;;;19.97;58.86;100899.44;8372112;28;20419;-59
2023/05/04 09:34:28;;;;;;;10.13;4.13;;;;;;;20.21;60.12;100890.88;8371095;28;20150;-59
2023/05/04 09:38:31;;;;;;;5.43;3.90;;;;;;;20.29;57.92;100893.50;8393692;28;20029;-58
2023/05/04 09:42:32;;;;;;;6.60;4.05;;;;;;;20.82;58.07;100882.00;8369042;28;20041;-59
2023/05/04 09:46:33;;;;;;;6.97;3.40;;;;;;;21.77;55.59;100877.69;8371279;28;20036;-59
2023/05/04 09:50:36;;;;;;;6.38;3.47;;;;;;;22.62;53.62;100876.91;8371428;28;20040;-59
2023/05/04 09:54:42;;;;;;;7.03;3.90;;;;;;;23.40;52.08;100875.25;8370816;28;20040;-60
2023/05/04 09:58:45;;;;;;;5.32;3.58;;;;;;;24.19;49.46;100865.66;8372011;28;20059;-60
2023/05/04 10:02:46;;;;;;;10.50;3.78;;;;;;;24.47;48.97;100868.91;8371230;28;20320;-60
2023/05/04 10:06:47;;;;;;;6.10;3.38;;;;;;;25.01;47.20;100861.72;8371144;28;20491;-59
2023/05/04 10:10:49;;;;;;;4.75;2.97;;;;;;;25.14;45.62;100866.28;8370802;28;20450;-60
2023/05/04 10:14:50;;;;;;;8.15;3.45;;;;;;;25.04;45.71;100849.38;8370369;28;20041;-59
2023/05/04 10:19:11;;;;;;;14.30;3.78;;;;;;;24.41;44.94;100847.69;8370746;28;20555;-59
2023/05/04 10:23:51;;;;;;;5.93;3.40;;;;;;;24.81;44.10;100843.59;8371816;28;20033;-58
2023/05/04 10:28:21;;;;;;;3.42;3.00;;;;;;;25.02;44.17;100845.97;8372968;28;20480;-59
2023/05/04 10:32:23;;;;;;;10.05;3.20;;;;;;;25.03;44.17;100842.13;8369567;28;20052;-59
2023/05/04 10:36:34;;;;;;;7.57;2.85;;;;;;;25.55;42.98;100813.91;8377311;28;20120;-59
2023/05/04 10:40:37;;;;;;;8.05;3.58;;;;;;;25.36;44.22;100801.16;8377967;28;20537;-59
2023/05/04 10:44:54;;;;;;;6.82;2.65;;;;;;;24.89;43.66;100802.66;8376430;28;20047;-59
2023/05/04 10:48:54;;;;;;;8.20;3.05;;;;;;;24.62;44.27;100773.50;8377060;28;20045;-59
2023/05/04 10:52:55;;;;;;;5.25;3.10;;;;;;;25.15;44.29;100779.41;8377401;28;20482;-59
2023/05/04 10:57:04;;;;;;;12.00;3.47;;;;;;;25.18;44.47;100795.56;8377892;28;20562;-60
2023/05/04 11:01:11;;;;;;;4.45;3.28;;;;;;;25.93;43.43;100784.03;8375327;28;20100;-58
2023/05/04 11:05:17;;;;;;;5.93;2.72;;;;;;;26.11;44.19;100748.00;8374594;28;20045;-58
2023/05/04 11:09:17;;;;;;;6.53;2.83;;;;;;;26.10;43.17;100760.16;8376575;28;20033;-58
2023/05/04 11:13:18;;;;;;;4.90;2.72;;;;;;;26.53;42.36;100757.97;8376060;28;20523;-58
2023/05/04 11:17:18;;;;;;;4.85;2.78;;;;;;;26.50;43.23;100746.53;8376370;28;20484;-58
2023/05/04 11:21:23;;;;;;;7.93;2.78;;;;;;;26.13;42.72;100734.72;8375408;28;20128;-60
2023/05/04 11:25:28;;;;;;;8.02;2.90;;;;;;;26.36;42.87;100745.03;8376396;28;20036;-58
2023/05/04 11:29:28;;;;;;;4.00;2.53;;;;;;;26.46;42.93;100723.97;8375747;28;20032;-58
2023/05/04 11:33:28;;;;;;;5.57;3.13;;;;;;;27.04;41.14;100692.66;8374872;28;20517;-57
2023/05/04 11:37:30;;;;;;;5.57;2.70;;;;;;;26.95;43.89;100728.25;8376019;28;20044;-58
2023/05/04 11:41:31;;;;;;;5.55;2.70;;;;;;;26.70;42.78;100724.88;8377117;28;20685;-58
2023/05/04 11:45:35;;;;;;;6.95;3.42;;;;;;;26.39;43.29;100712.16;8375325;28;20094;-58
2023/05/04 11:49:36;;;;;;;4.95;2.83;;;;;;;27.12;42.24;100709.78;8375677;28;20075;-58
2023/05/04 11:53:37;;;;;;;6.05;3.35;;;;;;;26.67;42.25;100709.56;8376777;28;20040;-58
2023/05/04 11:57:38;;;;;;;5.15;3.00;;;;;;;25.01;44.41;100717.81;8340309;28;20071;-57
2023/05/04 12:01:39;;;;;;;8.23;3.00;;;;;;;24.25;45.47;100710.88;8374765;28;20049;-57
2023/05/04 12:05:55;;;;;;;6.70;3.08;;;;;;;24.15;46.71;100706.91;8373521;28;20040;-57
2023/05/04 12:09:56;;;;;;;6.20;3.22;;;;;;;24.13;47.13;100703.53;8406737;28;20075;-57
2023/05/04 12:14:05;;;;;;;6.38;3.47;;;;;;;24.13;48.75;100700.75;8374019;28;20048;-57
2023/05/04 12:18:06;;;;;;;4.50;3.00;;;;;;;24.11;47.11;100691.84;8372912;28;20040;-57
2023/05/04 12:22:07;;;;;;;6.90;3.10;;;;;;;23.81;48.17;100687.97;8374207;28;20048;-57
2023/05/04 12:26:08;;;;;;;6.95;3.58;;;;;;;23.85;47.68;100695.59;8374176;28;20119;-57
2023/05/04 12:30:10;;;;;;;6.82;3.20;;;;;;;23.64;48.68;100695.09;8374067;28;20040;-58
2023/05/04 12:34:10;;;;;;;5.22;3.05;;;;;;;23.62;47.93;100697.22;8372470;28;20060;-57
2023/05/04 12:38:11;;;;;;;11.73;3.40;;;;;;;23.46;48.03;100703.25;8373805;28;20037;-58
2023/05/04 12:42:11;;;;;;;5.80;3.10;;;;;;;23.77;48.81;100682.06;8373600;28;20102;-58
2023/05/04 12:46:12;;;;;;;6.93;3.30;;;;;;;23.70;48.41;100674.88;8371619;28;20130;-57
2023/05/04 12:50:12;;;;;;;7.28;3.25;;;;;;;23.55;48.96;100674.34;8374678;28;20028;-57
2023/05/04 12:54:12;;;;;;;5.10;3.40;;;;;;;23.65;49.48;100652.59;8371629;28;20414;-58
2023/05/04 12:58:13;;;;;;;5.57;3.08;;;;;;;23.94;51.21;100652.00;8346713;28;20537;-58
2023/05/04 13:02:14;;;;;;;9.95;3.38;;;;;;;24.07;47.58;100646.38;8355835;28;20044;-58
2023/05/04 13:06:14;;;;;;;6.90;3.35;;;;;;;23.87;46.58;100634.59;8393139;28;20798;-58
2023/05/04 13:10:15;;;;;;;3.05;2.75;;;;;;;24.14;46.46;100625.06;8366804;28;20104;-58
2023/05/04 13:14:16;;;;;;;3.30;2.60;;;;;;;23.98;46.49;100632.03;8368777;28;20140;-58
2023/05/04 13:18:16;;;;;;;4.97;2.70;;;;;;;24.21;45.82;100614.81;8377420;28;20039;-58
2023/05/04 13:22:17;;;;;;;4.38;2.45;;;;;;;24.37;45.12;100615.06;8347106;28;20033;-58
2023/05/04 13:26:17;;;;;;;5.53;2.72;;;;;;;24.26;43.70;100607.53;8367699;28;20110;-58
2023/05/04 13:30:19;;;;;;;6.85;2.50;;;;;;;24.12;43.89;100603.19;8368223;28;20120;-58
2023/05/04 13:34:19;;;;;;;5.78;2.50;;;;;;;24.22;44.28;100599.94;8367457;28;20056;-60
2023/05/04 13:38:20;;;;;;;4.10;2.38;;;;;;;24.07;45.69;100588.38;8368492;28;20040;-59
2023/05/04 13:42:21;;;;;;;7.28;2.55;;;;;;;24.23;44.36;100579.50;8367501;28;20086;-59
2023/05/04 13:46:21;;;;;;;4.85;2.85;;;;;;;24.06;43.84;100572.88;8368048;28;20044;-58
2023/05/04 13:50:22;;;;;;;4.35;2.42;;;;;;;24.01;44.57;100575.47;8366917;28;20051;-58
2023/05/04 13:54:22;;;;;;;2.43;2.10;;;;;;;24.01;43.67;100556.13;8365176;28;20060;-59
2023/05/04 13:58:23;;;;;;;3.25;2.05;;;;;;;24.29;43.74;100562.00;8366558;28;20729;-58
2023/05/04 14:02:23;;;;;;;5.97;2.38;;;;;;;24.46;41.94;100560.34;8353520;28;20041;-60
2023/05/04 14:06:24;;;;;;;6.30;2.03;;;;;;;24.46;42.87;100547.34;8334378;28;20029;-60
2023/05/04 14:10:25;;;;;;;3.05;1.80;;;;;;;24.77;42.53;100525.09;8334642;28;20041;-60
2023/05/04 14:14:26;;;;;;;6.28;2.08;;;;;;;24.71;41.97;100528.81;8360384;28;20056;-60
2023/05/04 14:18:27;;;;;;;5.10;2.47;;;;;;;24.65;42.75;100517.81;8378563;28;20519;-60
2023/05/04 14:22:27;;;;;;;6.68;2.20;;;;;;;24.65;43.32;100521.44;8348550;28;20287;-60
2023/05/04 14:26:28;;;;;;;4.03;2.33;;;;;;;24.69;42.91;100491.38;8366822;28;20151;-60
2023/05/04 14:30:28;;;;;;;4.57;2.63;;;;;;;24.53;41.79;100492.00;8363907;28;20048;-62
2023/05/04 14:34:29;;;;;;;4.88;2.22;;;;;;;24.54;42.70;100485.38;8364874;28;20036;-62
2023/05/04 14:38:31;;;;;;;6.50;2.15;;;;;;;24.62;42.34;100474.00;8366896;28;20056;-62
2023/05/04 14:42:31;;;;;;;7.93;1.95;;;;;;;24.51;42.11;100474.78;8366562;28;20037;-62
2023/05/04 14:46:32;;;;;;;5.30;2.20;;;;;;;24.61;41.75;100475.09;8365131;28;20506;-62
2023/05/04 14:50:32;;;;;;;7.13;2.42;;;;;;;24.70;41.73;100470.97;8366586;28;20511;-62
2023/05/04 14:54:33;;;;;;;5.63;2.35;;;;;;;24.67;42.80;100461.19;8365928;28;20040;-62
2023/05/04 14:58:33;;;;;;;7.63;2.30;;;;;;;24.72;42.80;100457.72;8366383;28;20044;-62
2023/05/04 15:02:34;;;;;;;3.70;1.90;;;;;;;24.76;41.88;100448.75;8368838;28;20051;-62
2023/05/04 15:06:35;;;;;;;2.67;1.90;;;;;;;24.51;41.27;100444.38;8366271;28;20040;-62
2023/05/04 15:10:35;;;;;;;4.90;2.13;;;;;;;24.65;41.56;100429.34;8370280;28;20127;-62
2023/05/04 15:14:36;;;;;;;5.30;2.22;;;;;;;24.63;42.78;100420.38;8343940;28;20120;-62
2023/05/04 15:18:37;;;;;;;3.95;2.15;;;;;;;24.65;42.64;100409.97;8339111;28;20447;-62
2023/05/04 15:22:37;;;;;;;9.50;2.20;;;;;;;24.61;42.54;100423.38;8355888;28;20033;-62
2023/05/04 15:26:38;;;;;;;2.80;2.15;;;;;;;24.54;42.86;100427.31;8371956;28;20040;-62
2023/05/04 15:30:40;;;;;;;4.18;2.35;;;;;;;24.48;42.39;100436.53;8368560;28;20099;-62
2023/05/04 15:34:40;;;;;;;3.60;1.90;;;;;;;24.48;43.03;100439.31;8369709;28;20064;-62
2023/05/04 15:38:42;;;;;;;4.90;2.20;;;;;;;24.50;43.50;100426.09;8371375;28;20039;-62
2023/05/04 15:42:42;;;;;;;2.42;2.22;;;;;;;24.53;45.16;100440.31;8365156;28;20053;-62
2023/05/04 15:46:43;;;;;;;5.15;2.28;;;;;;;24.55;43.67;100453.91;8371198;28;20106;-62
2023/05/04 15:50:44;;;;;;;5.97;2.00;;;;;;;24.47;43.79;100443.16;8370872;28;20098;-62
2023/05/04 15:54:46;;;;;;;5.78;2.50;;;;;;;24.52;43.94;100440.56;8366147;28;20071;-62
2023/05/04 15:58:46;;;;;;;10.95;2.67;;;;;;;24.47;44.91;100423.81;8365415;28;20494;-62
2023/05/04 16:02:46;;;;;;;9.05;2.70;;;;;;;24.18;47.27;100416.31;8356810;28;20152;-59
2023/05/04 16:06:47;;;;;;;5.55;2.70;;;;;;;24.08;48.01;100410.47;8340432;28;20040;-59
2023/05/04 16:10:47;;;;;;;14.65;3.58;;;;;;;24.32;46.85;100404.00;8335134;28;20041;-58
2023/05/04 16:14:48;;;;;;;10.23;2.65;;;;;;;24.06;47.32;100401.59;8343403;28;20037;-58
2023/05/04 16:18:48;;;;;;;4.45;2.33;;;;;;;24.09;47.08;100393.66;8338842;28;20490;-59
2023/05/04 16:22:48;;;;;;;6.63;3.00;;;;;;;24.36;46.95;100394.16;8368049;28;20494;-59
2023/05/04 16:26:50;;;;;;;6.53;3.20;;;;;;;24.48;46.50;100384.00;8368380;28;20287;-58
2023/05/04 16:30:50;;;;;;;4.60;2.38;;;;;;;24.35;45.91;100386.97;8362164;28;20037;-58
2023/05/04 16:34:51;;;;;;;6.03;3.50;;;;;;;24.19;46.98;100391.22;8368453;28;20053;-58
2023/05/04 16:38:51;;;;;;;5.72;2.90;;;;;;;24.20;46.76;100389.28;8367023;28;20033;-58
2023/05/04 16:42:52;;;;;;;9.70;3.30;;;;;;;24.01;47.55;100395.91;8365954;28;20049;-59
2023/05/04 16:46:53;;;;;;;6.85;2.92;;;;;;;24.15;47.48;100401.03;8337837;28;20041;-56
2023/05/04 16:50:53;;;;;;;7.07;2.60;;;;;;;24.13;47.50;100402.34;8340420;28;20065;-59
2023/05/04 16:54:54;;;;;;;4.20;2.90;;;;;;;24.17;47.82;100396.13;8367583;28;20044;-59
2023/05/04 16:58:54;;;;;;;3.50;3.13;;;;;;;24.11;47.07;100387.91;8364021;28;20094;-59
2023/05/04 17:02:55;;;;;;;3.45;2.95;;;;;;;24.14;46.75;100387.44;8368623;28;20794;-58
2023/05/04 17:06:55;;;;;;;5.38;3.00;;;;;;;23.83;48.33;100390.34;8368405;28;20123;-58
2023/05/04 17:10:58;;;;;;;4.47;2.47;;;;;;;23.65;48.87;100398.59;8400444;28;20044;-58
2023/05/04 17:14:59;;;;;;;5.35;2.30;;;;;;;23.52;49.13;100393.22;8364690;28;20060;-57
2023/05/04 17:18:59;;;;;;;4.45;2.45;;;;;;;23.36;49.84;100402.09;8342830;28;20452;-58
2023/05/04 17:23:00;;;;;;;6.60;2.63;;;;;;;23.18;50.67;100398.16;8352986;28;20057;-59
2023/05/04 17:27:00;;;;;;;6.72;3.20;;;;;;;23.18;50.89;100398.16;8346340;28;20049;-59
2023/05/04 17:31:00;;;;;;;3.95;2.83;;;;;;;23.17;50.47;100390.97;8373397;28;20043;-59
2023/05/04 17:35:01;;;;;;;4.93;3.00;;;;;;;23.15;50.91;100404.13;8383003;28;20388;-59
2023/05/04 17:39:02;;;;;;;5.95;3.10;;;;;;;23.07;51.08;100401.66;8383331;28;20040;-59
2023/05/04 17:43:03;;;;;;;4.13;3.08;;;;;;;23.10;51.43;100395.69;8369410;28;20055;-59
2023/05/04 17:47:04;;;;;;;6.03;2.80;;;;;;;23.13;52.33;100400.78;8368163;28;20045;-59
2023/05/04 17:51:07;;;;;;;4.13;2.75;;;;;;;23.13;52.02;100406.28;8367426;28;20495;-59
2023/05/04 17:55:08;;;;;;;8.23;3.20;;;;;;;23.21;51.38;100408.75;8367746;28;20473;-60
2023/05/04 17:59:08;;;;;;;4.15;2.40;;;;;;;23.27;50.84;100398.78;8367039;28;20045;-59
2023/05/04 18:03:09;;;;;;;6.68;3.05;;;;;;;23.16;50.66;100389.28;8364862;28;20080;-59
2023/05/04 18:07:10;;;;;;;7.07;3.35;;;;;;;23.10;50.74;100406.72;8364765;28;20052;-59
2023/05/04 18:11:11;;;;;;;15.50;3.33;;;;;;;23.01;51.10;100405.31;8370969;28;20032;-59
2023/05/04 18:15:11;;;;;;;4.18;2.97;;;;;;;22.89;51.19;100398.81;8347296;28;20454;-59
2023/05/04 18:19:12;;;;;;;5.55;2.97;;;;;;;22.83;51.08;100405.22;8342163;28;20036;-60
2023/05/04 18:23:12;;;;;;;4.72;2.58;;;;;;;22.66;51.12;100409.56;8363633;28;20063;-59
2023/05/04 18:27:13;;;;;;;8.27;2.67;;;;;;;22.39;52.23;100408.00;8360063;28;20496;-62
2023/05/04 18:31:13;;;;;;;4.82;2.88;;;;;;;22.32;52.18;100409.94;8369305;28;20091;-61
2023/05/04 18:35:16;;;;;;;4.18;3.03;;;;;;;22.16;52.37;100407.69;8414348;28;20047;-61
2023/05/04 18:39:16;;;;;;;5.50;3.10;;;;;;;22.05;52.88;100411.09;8415569;28;20440;-61